Hlavní strana
METAR-TAF:

METAR-TAF

Letiště :

Mezinárodní letiště Pierra Elliotta Trudeau

Montreal Trudeau, Québec, Kanada

zeměpisná šířka: 45-28N, zeměpisná délka: 073-45W, výška: 31 m

Aktuální stav počasí

Zpráva byla vytvořena před 15 minutami, v 16:00 UTC
Severozápadní vítr 7 kt s nárazy do 15 kt, proměnlivý mezi západním a severním
Teplota 21°C
Vlhkost vzduchu 40%
Tlak 1016 hPa
Viditelnost: 48.3 km
Skoro jasno ve výšce 5000 ft

METAR: CYUL 181600Z 31007G15KT 280V360 30SM FEW050 21/07 A2999 RMK CF1 CF TR SLP157 DENSITY ALT 800FT

Čas: 12:15 (16:15 UTC)

Předpověď počasí

Zpráva byla vytvořena před 1 hodinou a 37 minutami, v 14:38 UTC
Předpověď platná od 18 v 15 UTC do 19 v 12 UTC
Severozápadní vítr 10 kt
Viditelnost: 10 km
Jasno
Změna
od 18 v 18 UTC do 18 v 20 UTC
Západní vítr 10 kt
Změna
od 19 v 04 UTC do 19 v 06 UTC
Západní vítr 5 kt

TAF: CYUL 181438Z 1815/1912 32010KT P6SM SKC BECMG 1818/1820 28010KT BECMG 1904/1906 27005KT RMK NXT FCST BY 181800Z

Stav a předpovědi počasí z více než 4 000 letišť (zprávy METAR a TAF).

Červené a žluté tečky na mapě představují dostupné meteorologické stanice.

Když kurzor umístíte na tečku, zobrazí se název stanice.

Pak kliknutím zobrazíte stav a předpověď počasí.

Chcete-li změnit mapu, kliknutím na zelené tlačítko se znaménkem +mapu přiblížíte, kliknutím na zelené tlačítko se znaménkem – mapu oddálíte a kliknutím na zelené šipky přejdete na sousední mapy.


METAR-TAF: